Time;durP1;ratioP1;P1;durP2;ratioP2;P2;SDS_P1;SDS_P2;PMS_P1;PMS_P2;Temp;Humidity;BMP_temperature;BMP_pressure;BME280_temperature;BME280_humidity;BME280_pressure;Samples;Min_cycle;Max_cycle;Signal;HPM_P1;HPM_P2
2023/08/07 00:04:28;;;;;;;5.13;4.65;;;16.00;99.90;;;;;;5022194;28;20217;-73
2023/08/07 00:07:12;;;;;;;4.63;4.22;;;16.00;26.10;;;;;;5017955;28;20200;-73
2023/08/07 00:09:37;;;;;;;5.47;4.55;;;15.90;99.90;;;;;;5013975;28;20218;-72
2023/08/07 00:12:19;;;;;;;5.10;4.60;;;16.00;99.90;;;;;;5008585;28;20180;-72
2023/08/07 00:14:47;;;;;;;7.03;4.80;;;15.90;99.90;;;;;;5004928;28;20232;-72
2023/08/07 00:17:27;;;;;;;5.75;4.93;;;15.90;99.90;;;;;;5004964;28;20682;-74
2023/08/07 00:19:52;;;;;;;5.25;4.82;;;15.90;99.90;;;;;;4987161;28;20187;-73
2023/08/07 00:22:18;;;;;;;5.20;4.70;;;15.90;1.00;;;;;;5004703;28;20194;-72
2023/08/07 00:24:44;;;;;;;5.65;5.05;;;15.90;1.00;;;;;;5004701;28;20199;-73
2023/08/07 00:27:15;;;;;;;5.70;4.70;;;15.90;99.90;;;;;;5004801;28;20326;-73
2023/08/07 00:29:41;;;;;;;7.32;4.68;;;15.90;26.80;;;;;;5005790;28;20766;-73
2023/08/07 00:32:07;;;;;;;7.93;5.28;;;15.90;1.00;;;;;;5004339;28;20172;-73
2023/08/07 00:34:33;;;;;;;6.20;5.15;;;17.90;1.00;;;;;;5004705;28;20191;-72
2023/08/07 00:36:58;;;;;;;7.57;5.10;;;15.90;1.00;;;;;;5004246;28;20222;-73
2023/08/07 00:39:24;;;;;;;6.63;5.43;;;15.90;99.90;;;;;;5004885;28;20184;-73
2023/08/07 00:41:49;;;;;;;5.72;4.82;;;15.90;1.00;;;;;;5005086;28;20183;-73
2023/08/07 00:44:15;;;;;;;5.95;5.35;;;15.90;99.90;;;;;;5005055;28;20191;-73
2023/08/07 00:46:42;;;;;;;5.72;5.22;;;15.90;1.00;;;;;;5004268;28;20210;-72
2023/08/07 00:49:09;;;;;;;7.65;5.68;;;15.90;1.00;;;;;;5006484;28;20207;-73
2023/08/07 00:51:36;;;;;;;6.78;6.07;;;15.90;1.00;;;;;;5006461;28;20697;-72
2023/08/07 00:54:04;;;;;;;6.80;5.90;;;15.90;99.90;;;;;;5004902;28;20253;-73
2023/08/07 00:56:31;;;;;;;8.95;6.45;;;15.90;1.00;;;;;;5004049;28;20203;-72
2023/08/07 00:58:58;;;;;;;7.15;6.13;;;15.90;99.90;;;;;;5004961;28;20191;-73
2023/08/07 01:01:25;;;;;;;8.02;7.22;;;16.00;99.90;;;;;;5004342;28;20180;-73
2023/08/07 01:03:51;;;;;;;7.55;6.75;;;15.80;1.00;;;;;;5008215;28;20188;-72
2023/08/07 01:06:17;;;;;;;6.57;6.00;;;15.80;1.00;;;;;;5003283;28;20679;-73
2023/08/07 01:12:21;;;;;;;7.05;6.07;;;15.80;1.00;;;;;;5004506;28;20190;-72
2023/08/07 01:14:56;;;;;;;7.82;6.07;;;15.80;1.00;;;;;;5004415;28;20183;-72
2023/08/07 01:17:23;;;;;;;6.85;6.15;;;15.70;1.00;;;;;;5002455;28;20696;-72
2023/08/07 01:19:51;;;;;;;5.93;5.30;;;15.70;99.90;;;;;;5003730;28;20589;-72
2023/08/07 01:22:18;;;;;;;5.28;4.78;;;15.60;99.90;;;;;;5004689;28;20184;-71
2023/08/07 01:24:49;;;;;;;6.03;5.43;;;15.60;99.90;;;;;;5004235;28;20620;-71
2023/08/07 01:27:18;;;;;;;7.35;5.05;;;15.70;1.00;;;;;;5004297;28;20223;-72
2023/08/07 01:29:46;;;;;;;5.93;4.95;;;15.70;1.00;;;;;;5004754;28;20215;-72
2023/08/07 01:32:16;;;;;;;5.07;4.68;;;15.50;1.00;;;;;;5009071;28;20203;-72
2023/08/07 01:34:43;;;;;;;4.90;4.50;;;15.50;1.00;;;;;;5004179;28;20179;-73
2023/08/07 01:37:11;;;;;;;6.20;5.03;;;15.40;99.90;;;;;;5003992;28;20541;-72
2023/08/07 01:39:37;;;;;;;5.53;4.75;;;15.40;99.90;;;;;;5005398;28;20194;-72
2023/08/07 01:42:04;;;;;;;6.53;5.50;;;15.30;19.70;;;;;;5004421;28;20219;-72
2023/08/07 01:44:30;;;;;;;6.00;5.43;;;15.30;1.00;;;;;;5009485;28;20188;-72
2023/08/07 01:46:56;;;;;;;5.72;5.20;;;15.20;1.00;;;;;;5008065;28;20221;-72
2023/08/07 01:49:22;;;;;;;7.07;5.10;;;15.10;99.90;;;;;;5007917;28;20681;-73
2023/08/07 01:51:47;;;;;;;5.20;4.80;;;15.10;1.00;;;;;;5008199;28;20647;-73
2023/08/07 01:54:13;;;;;;;6.47;5.65;;;15.00;99.90;;;;;;5012538;28;20238;-73
2023/08/07 01:56:38;;;;;;;6.78;5.20;;;15.00;45.60;;;;;;5007139;28;20251;-72
2023/08/07 01:59:04;;;;;;;7.57;6.00;;;15.00;99.90;;;;;;5007856;28;20199;-72
2023/08/07 02:01:30;;;;;;;6.75;5.70;;;15.00;99.90;;;;;;5010343;28;20192;-72
2023/08/07 02:03:55;;;;;;;6.70;6.00;;;15.00;99.90;;;;;;5014756;28;20677;-71
2023/08/07 02:06:21;;;;;;;6.47;5.68;;;15.00;1.00;;;;;;5006599;28;20218;-71
2023/08/07 02:08:47;;;;;;;9.35;6.20;;;15.00;99.90;;;;;;5008917;28;20634;-72
2023/08/07 02:11:13;;;;;;;6.70;5.97;;;15.00;99.90;;;;;;5007784;28;20237;-70
2023/08/07 02:13:38;;;;;;;6.70;6.10;;;15.10;1.00;;;;;;5008464;28;20266;-73
2023/08/07 02:16:04;;;;;;;7.32;6.63;;;15.20;1.00;;;;;;5006225;28;20195;-72
2023/08/07 02:18:30;;;;;;;7.10;6.45;;;15.10;1.00;;;;;;5008296;28;20238;-73
2023/08/07 02:20:55;;;;;;;7.32;6.72;;;15.10;99.90;;;;;;5006779;28;20191;-73
2023/08/07 02:23:21;;;;;;;7.57;6.53;;;15.20;85.80;;;;;;5008005;28;20194;-72
2023/08/07 02:25:48;;;;;;;8.10;7.45;;;15.20;1.00;;;;;;5006171;28;20262;-72
2023/08/07 02:28:13;;;;;;;9.20;8.23;;;15.30;1.00;;;;;;5007824;28;20318;-72
2023/08/07 02:30:39;;;;;;;8.45;7.65;;;15.20;78.30;;;;;;4989080;28;20386;-72
2023/08/07 02:33:05;;;;;;;7.68;6.88;;;15.30;29.70;;;;;;5013428;28;20191;-72
2023/08/07 02:35:31;;;;;;;8.23;7.20;;;15.40;1.00;;;;;;5006366;28;20187;-72
2023/08/07 02:37:57;;;;;;;7.65;6.90;;;15.40;1.00;;;;;;5007321;28;20206;-72
2023/08/07 02:40:22;;;;;;;7.40;6.70;;;15.40;1.00;;;;;;5006758;28;20238;-71
2023/08/07 02:42:48;;;;;;;6.65;6.00;;;15.40;1.00;;;;;;5007381;28;20341;-71
2023/08/07 02:45:14;;;;;;;7.57;6.22;;;15.40;99.90;;;;;;5006110;28;20215;-72
2023/08/07 02:47:39;;;;;;;6.82;6.18;;;15.40;99.90;;;;;;5008985;28;20223;-72
2023/08/07 02:50:05;;;;;;;7.75;7.00;;;15.40;99.90;;;;;;5006625;28;20204;-71
2023/08/07 02:52:31;;;;;;;6.55;5.95;;;15.40;1.00;;;;;;5010132;28;20242;-72
2023/08/07 02:54:58;;;;;;;6.80;6.10;;;15.40;95.70;;;;;;5013268;28;20179;-72
2023/08/07 02:57:24;;;;;;;7.45;6.70;;;15.40;99.90;;;;;;5010185;28;20202;-72
2023/08/07 02:59:50;;;;;;;6.70;6.00;;;15.40;1.00;;;;;;5006060;28;20666;-71
2023/08/07 03:02:16;;;;;;;7.05;6.43;;;15.40;1.00;;;;;;5006756;28;20655;-71
2023/08/07 03:04:42;;;;;;;6.82;6.18;;;15.40;99.90;;;;;;5006270;28;20195;-73
2023/08/07 03:07:07;;;;;;;7.38;6.68;;;15.40;99.90;;;;;;5006080;28;20219;-72
2023/08/07 03:09:33;;;;;;;7.45;6.75;;;15.40;1.00;;;;;;5006313;28;20258;-71
2023/08/07 03:12:03;;;;;;;7.32;6.60;;;15.40;1.00;;;;;;5006548;28;20190;-72
2023/08/07 03:14:29;;;;;;;7.43;6.72;;;15.30;1.00;;;;;;4990937;28;20547;-72
2023/08/07 03:16:55;;;;;;;7.60;6.80;;;15.30;1.00;;;;;;5005465;28;20199;-72
2023/08/07 03:19:21;;;;;;;7.45;6.65;;;15.30;99.90;;;;;;5006651;28;20448;-72
2023/08/07 03:21:47;;;;;;;7.25;6.57;;;15.30;99.90;;;;;;5006314;28;20180;-72
2023/08/07 03:24:12;;;;;;;8.07;6.25;;;15.40;99.90;;;;;;5006125;28;20199;-72
2023/08/07 03:26:38;;;;;;;7.82;6.15;;;15.40;1.00;;;;;;5005443;28;20257;-73
2023/08/07 03:29:04;;;;;;;7.70;6.15;;;15.30;1.00;;;;;;5006078;28;20211;-72
2023/08/07 03:31:29;;;;;;;6.40;5.80;;;15.30;1.00;;;;;;5006485;28;20668;-71
2023/08/07 03:33:55;;;;;;;7.05;6.10;;;15.50;1.00;;;;;;5013641;28;20179;-72
2023/08/07 03:36:22;;;;;;;7.00;5.22;;;15.30;99.90;;;;;;5015401;28;20206;-72
2023/08/07 03:38:47;;;;;;;6.28;5.50;;;15.30;1.00;;;;;;5008156;28;20270;-73
2023/08/07 03:41:13;;;;;;;7.35;6.05;;;15.30;99.90;;;;;;5013674;28;20484;-73
2023/08/07 03:43:39;;;;;;;6.03;5.45;;;15.20;99.90;;;;;;5007828;28;20230;-73
2023/08/07 03:46:04;;;;;;;8.20;5.60;;;15.20;99.90;;;;;;5012484;28;20198;-73
2023/08/07 03:48:31;;;;;;;6.13;5.47;;;15.20;1.00;;;;;;5020898;28;20182;-73
2023/08/07 03:51:08;;;;;;;6.20;4.88;;;15.20;99.90;;;;;;5009527;28;20179;-72
2023/08/07 03:53:33;;;;;;;6.07;4.70;;;15.20;99.90;;;;;;5005388;28;20175;-72
2023/08/07 03:55:59;;;;;;;6.28;5.00;;;15.20;99.90;;;;;;4991392;28;20591;-72
2023/08/07 03:58:25;;;;;;;6.30;4.80;;;15.30;99.90;;;;;;5005432;28;20282;-72
2023/08/07 04:00:52;;;;;;;5.07;4.38;;;15.30;1.00;;;;;;5006017;28;20187;-73
2023/08/07 04:03:18;;;;;;;6.55;5.13;;;15.20;99.90;;;;;;5013929;28;20194;-73
2023/08/07 04:05:44;;;;;;;6.95;5.03;;;15.20;1.00;;;;;;5007876;28;20322;-73
2023/08/07 04:08:09;;;;;;;6.53;4.85;;;15.20;1.00;;;;;;5011020;28;20310;-73
2023/08/07 04:10:35;;;;;;;7.40;5.10;;;15.20;1.00;;;;;;5008310;28;20583;-72
2023/08/07 04:13:01;;;;;;;7.78;5.00;;;15.20;99.90;;;;;;5006077;28;20222;-73
2023/08/07 04:15:26;;;;;;;6.45;4.55;;;15.20;1.00;;;;;;5012473;28;20193;-72
2023/08/07 04:17:52;;;;;;;7.25;4.60;;;15.20;1.00;;;;;;5017807;28;20199;-73
2023/08/07 04:20:19;;;;;;;7.97;4.93;;;15.20;1.00;;;;;;5015727;28;20604;-73
2023/08/07 04:22:45;;;;;;;6.35;4.20;;;15.20;1.00;;;;;;5011292;28;20257;-73
2023/08/07 04:25:11;;;;;;;5.68;4.00;;;15.20;1.00;;;;;;5011696;28;20198;-73
2023/08/07 04:27:38;;;;;;;6.82;3.78;;;15.20;1.00;;;;;;5014813;28;20210;-73
2023/08/07 04:30:05;;;;;;;4.63;4.05;;;15.20;99.90;;;;;;5011900;28;20211;-73
2023/08/07 04:32:30;;;;;;;4.43;3.92;;;15.20;99.90;;;;;;5008984;28;20214;-73
2023/08/07 04:34:56;;;;;;;7.47;4.50;;;15.20;99.90;;;;;;4987689;28;20211;-72
2023/08/07 04:37:22;;;;;;;6.22;4.20;;;15.20;1.00;;;;;;5007253;28;20206;-73
2023/08/07 04:39:48;;;;;;;5.20;4.15;;;15.20;99.90;;;;;;5008209;28;20187;-73
2023/08/07 04:42:13;;;;;;;5.40;4.28;;;15.20;1.00;;;;;;5010147;28;20188;-73
2023/08/07 04:44:39;;;;;;;7.88;4.85;;;15.20;1.00;;;;;;5014162;28;20205;-73
2023/08/07 04:47:05;;;;;;;5.60;4.00;;;15.20;99.90;;;;;;4995549;28;20215;-72
2023/08/07 04:49:30;;;;;;;6.15;4.55;;;15.30;99.90;;;;;;5019472;28;20238;-72
2023/08/07 04:51:56;;;;;;;7.28;4.65;;;15.30;99.90;;;;;;5014367;28;20218;-73
2023/08/07 04:54:22;;;;;;;6.25;5.15;;;15.30;96.50;;;;;;5012685;28;20184;-72
2023/08/07 04:56:47;;;;;;;5.07;4.43;;;15.40;1.00;;;;;;5008142;28;20266;-73
2023/08/07 04:59:13;;;;;;;8.93;4.22;;;15.30;99.90;;;;;;5015618;28;20194;-73
2023/08/07 05:01:38;;;;;;;6.05;4.47;;;15.30;99.90;;;;;;5014658;28;20193;-73
2023/08/07 05:04:05;;;;;;;7.72;4.80;;;15.30;99.90;;;;;;5005190;28;20211;-72
2023/08/07 05:06:31;;;;;;;5.55;4.13;;;15.40;1.00;;;;;;5013391;28;20242;-73
2023/08/07 05:08:57;;;;;;;5.45;4.38;;;15.50;27.00;;;;;;5029393;23;20277;-89
2023/08/07 05:11:22;;;;;;;4.78;4.25;;;15.60;99.90;;;;;;5011976;28;20186;-89
2023/08/07 05:13:48;;;;;;;6.47;4.70;;;15.50;99.90;;;;;;5005981;28;20190;-89
2023/08/07 05:16:13;;;;;;;4.95;4.28;;;15.50;99.90;;;;;;5010785;28;20207;-91
2023/08/07 05:18:39;;;;;;;5.20;4.20;;;15.70;1.00;;;;;;5013276;28;20281;-89
2023/08/07 05:21:07;;;;;;;5.97;4.03;;;15.40;1.00;;;;;;5034768;28;20285;-89
2023/08/07 05:23:32;;;;;;;5.88;4.50;;;15.40;1.00;;;;;;5016035;28;20186;-90
2023/08/07 05:25:58;;;;;;;6.38;4.82;;;15.40;71.40;;;;;;5037233;28;20175;-91
2023/08/07 05:28:23;;;;;;;4.90;4.40;;;15.40;1.00;;;;;;5014602;28;20559;-90
2023/08/07 05:30:49;;;;;;;6.95;5.20;;;15.40;99.90;;;;;;5013431;28;20185;-91
2023/08/07 05:33:15;;;;;;;7.07;4.80;;;15.30;74.80;;;;;;5013300;28;20892;-90
2023/08/07 05:35:41;;;;;;;8.43;4.90;;;15.30;1.00;;;;;;5012405;28;20570;-89
2023/08/07 05:38:06;;;;;;;6.22;5.22;;;15.40;99.90;;;;;;5012847;28;20205;-89
2023/08/07 05:40:34;;;;;;;7.55;5.63;;;15.40;5.60;;;;;;5013628;28;20186;-88
2023/08/07 05:42:59;;;;;;;6.65;5.03;;;15.70;1.00;;;;;;5023123;28;20214;-88
2023/08/07 05:45:25;;;;;;;5.75;5.25;;;15.40;1.00;;;;;;5027352;28;20197;-89
2023/08/07 05:47:50;;;;;;;5.63;4.70;;;15.40;99.90;;;;;;5031698;28;20198;-87
2023/08/07 05:50:16;;;;;;;6.45;5.25;;;15.90;1.00;;;;;;5023927;28;20210;-88
2023/08/07 05:52:41;;;;;;;5.82;5.22;;;15.40;1.00;;;;;;5023183;28;20261;-88
2023/08/07 05:55:08;;;;;;;6.13;5.53;;;15.40;1.00;;;;;;5023194;28;20243;-88
2023/08/07 05:57:33;;;;;;;6.72;5.97;;;15.40;1.00;;;;;;5024560;28;20199;-88
2023/08/07 05:59:59;;;;;;;6.75;5.85;;;15.40;99.90;;;;;;5021103;28;20186;-87
2023/08/07 06:02:25;;;;;;;6.68;5.68;;;15.40;1.00;;;;;;5022550;28;20190;-86
2023/08/07 06:04:50;;;;;;;6.68;5.20;;;15.50;1.00;;;;;;5022380;28;20617;-87
2023/08/07 06:07:23;;;;;;;8.85;5.93;;;15.40;14.40;;;;;;5023616;28;20205;-88
2023/08/07 06:09:49;;;;;;;7.03;5.30;;;15.50;21.60;;;;;;5019753;28;20953;-86
2023/08/07 06:12:14;;;;;;;6.63;5.22;;;15.50;1.00;;;;;;5009812;28;20179;-88
2023/08/07 06:14:40;;;;;;;5.93;5.43;;;15.50;1.00;;;;;;5010452;28;20240;-88
2023/08/07 06:17:05;;;;;;;7.03;5.45;;;15.50;1.00;;;;;;5011446;28;20242;-90
2023/08/07 06:19:31;;;;;;;6.25;5.60;;;16.60;99.90;;;;;;5011442;28;20189;-90
2023/08/07 06:21:57;;;;;;;6.72;5.25;;;15.30;99.90;;;;;;5012216;28;20193;-89
2023/08/07 06:24:22;;;;;;;7.57;5.47;;;15.30;1.00;;;;;;5012853;28;20199;-88
2023/08/07 06:26:49;;;;;;;7.78;5.97;;;15.30;1.00;;;;;;5013509;28;20202;-90
2023/08/07 06:29:15;;;;;;;8.45;5.30;;;15.40;1.00;;;;;;5014357;28;20207;-91
2023/08/07 06:31:40;;;;;;;5.65;4.78;;;15.50;1.00;;;;;;5014377;28;20182;-91
2023/08/07 06:34:06;;;;;;;7.05;4.68;;;16.20;1.00;;;;;;5033103;28;20201;-90
2023/08/07 06:36:31;;;;;;;7.22;5.38;;;15.80;1.00;;;;;;5013179;28;20309;-90
2023/08/07 06:38:57;;;;;;;6.05;5.00;;;16.70;99.90;;;;;;5013108;28;20191;-88
2023/08/07 06:41:22;;;;;;;6.55;5.25;;;15.60;1.00;;;;;;5014134;28;20193;-91
2023/08/07 06:43:49;;;;;;;5.93;5.07;;;15.70;1.00;;;;;;5012575;28;20273;-89
2023/08/07 06:46:15;;;;;;;6.47;5.32;;;16.60;91.30;;;;;;5012274;28;20251;-90
2023/08/07 06:48:40;;;;;;;6.72;5.63;;;15.70;99.90;;;;;;5012112;28;20214;-91
2023/08/07 06:51:06;;;;;;;8.05;4.80;;;16.40;99.90;;;;;;5012031;28;20179;-91
2023/08/07 06:53:33;;;;;;;10.02;5.35;;;15.60;99.90;;;;;;5015744;28;20183;-88
2023/08/07 06:55:58;;;;;;;8.98;5.30;;;15.50;99.90;;;;;;5019819;28;20696;-87
2023/08/07 06:58:24;;;;;;;7.68;5.05;;;15.40;99.90;;;;;;5017096;28;20187;-88
2023/08/07 07:00:49;;;;;;;8.35;5.80;;;15.30;99.90;;;;;;5009655;28;20175;-91
2023/08/07 07:03:15;;;;;;;6.93;5.47;;;15.60;1.00;;;;;;5013549;28;20197;-91
2023/08/07 07:05:42;;;;;;;5.20;4.68;;;15.20;1.00;;;;;;5013835;28;20190;-89
2023/08/07 07:08:08;;;;;;;6.15;5.07;;;16.10;99.90;;;;;;5017381;28;20297;-89
2023/08/07 07:10:43;;;;;;;6.13;5.25;;;15.60;99.90;;;;;;5019544;28;20226;-89
2023/08/07 07:13:32;;;;;;;5.10;4.53;;;15.20;1.00;;;;;;5018233;28;20185;-88
2023/08/07 07:15:58;;;;;;;5.93;5.22;;;15.20;99.90;;;;;;5017100;28;20261;-90
2023/08/07 07:18:28;;;;;;;6.55;5.65;;;15.10;99.90;;;;;;5011967;28;20330;-90
2023/08/07 07:21:00;;;;;;;6.07;5.13;;;15.30;99.90;;;;;;5032371;28;20269;-90
2023/08/07 07:23:29;;;;;;;5.03;4.63;;;15.50;99.90;;;;;;5027821;28;20551;-90
2023/08/07 07:25:54;;;;;;;7.05;4.70;;;15.70;1.00;;;;;;5018693;28;20648;-91
2023/08/07 07:28:20;;;;;;;7.43;4.43;;;15.90;99.90;;;;;;5018054;28;20190;-90
2023/08/07 07:30:46;;;;;;;4.70;4.30;;;16.00;99.90;;;;;;5020339;28;20214;-90
2023/08/07 07:33:13;;;;;;;4.68;4.10;;;15.90;99.90;;;;;;5016069;28;20175;-90
2023/08/07 07:35:39;;;;;;;4.60;3.97;;;16.00;99.90;;;;;;5018966;28;20278;-90
2023/08/07 07:38:06;;;;;;;4.05;3.63;;;16.10;1.00;;;;;;5012859;28;20222;-88
2023/08/07 07:40:33;;;;;;;5.03;3.20;;;16.10;1.00;;;;;;5016598;28;20649;-90
2023/08/07 07:42:59;;;;;;;4.20;3.33;;;16.70;1.00;;;;;;5017443;28;20179;-89
2023/08/07 07:45:24;;;;;;;4.47;3.22;;;16.00;1.00;;;;;;5019702;28;20179;-89
2023/08/07 07:47:50;;;;;;;3.70;3.35;;;16.00;1.00;;;;;;5016977;28;20215;-87
2023/08/07 07:50:16;;;;;;;3.38;3.10;;;15.90;1.00;;;;;;5019086;28;20289;-87
2023/08/07 07:52:43;;;;;;;5.22;2.97;;;16.10;99.90;;;;;;5019229;28;20178;-89
2023/08/07 07:55:09;;;;;;;3.92;3.17;;;16.20;1.00;;;;;;5021117;28;20202;-86
2023/08/07 07:57:35;;;;;;;3.42;3.13;;;16.40;99.90;;;;;;5016464;28;20203;-89
2023/08/07 08:00:01;;;;;;;4.97;2.72;;;17.20;99.90;;;;;;5015379;28;20197;-87
2023/08/07 08:02:26;;;;;;;5.57;2.40;;;16.80;99.90;;;;;;5015754;28;20197;-86
2023/08/07 08:04:53;;;;;;;2.45;2.20;;;17.00;99.90;;;;;;5014630;28;20183;-88
2023/08/07 08:07:19;;;;;;;2.40;2.20;;;16.90;2.60;;;;;;5017416;28;20213;-88
2023/08/07 08:09:44;;;;;;;3.05;2.30;;;16.80;1.00;;;;;;5017339;28;20214;-89
2023/08/07 08:12:10;;;;;;;3.08;2.50;;;17.40;99.90;;;;;;5017201;28;20601;-87
2023/08/07 08:14:38;;;;;;;4.95;2.20;;;17.10;1.00;;;;;;5017491;28;20537;-86
2023/08/07 08:17:09;;;;;;;2.60;2.10;;;17.30;99.90;;;;;;5017146;28;20210;-88
2023/08/07 08:19:41;;;;;;;4.28;2.13;;;17.80;1.00;;;;;;5017040;28;20179;-89
2023/08/07 08:22:06;;;;;;;2.90;2.05;;;17.80;1.00;;;;;;5016326;28;20238;-88
2023/08/07 08:24:32;;;;;;;4.88;2.05;;;18.10;1.00;;;;;;5016852;28;20579;-88
2023/08/07 08:26:58;;;;;;;3.60;1.80;;;18.30;99.90;;;;;;5021461;28;20228;-86
2023/08/07 08:29:24;;;;;;;2.53;1.98;;;18.10;64.10;;;;;;5037837;28;20622;-89
2023/08/07 08:31:52;;;;;;;2.40;2.00;;;18.20;99.90;;;;;;5012632;28;20236;-88
2023/08/07 08:34:18;;;;;;;2.15;1.60;;;18.10;85.50;;;;;;5012554;28;20182;-88
2023/08/07 08:36:45;;;;;;;2.60;2.00;;;18.10;73.30;;;;;;5019342;28;20223;-89
2023/08/07 08:39:34;;;;;;;2.58;1.90;;;18.10;99.90;;;;;;5043236;28;20183;-89
2023/08/07 08:42:01;;;;;;;3.40;2.20;;;17.80;59.90;;;;;;5005895;28;20202;-89
2023/08/07 08:44:31;;;;;;;4.05;2.10;;;17.50;99.90;;;;;;5023631;28;20179;-88
2023/08/07 08:47:00;;;;;;;1.95;1.77;;;17.30;1.00;;;;;;5020572;28;20202;-87
2023/08/07 08:49:32;;;;;;;3.40;1.90;;;17.60;99.90;;;;;;5016314;28;20203;-88
2023/08/07 08:51:58;;;;;;;4.50;1.98;;;18.20;99.90;;;;;;5024614;28;20387;-81
2023/08/07 08:54:25;;;;;;;3.42;1.90;;;18.60;1.00;;;;;;5026123;28;20206;-83
2023/08/07 08:56:52;;;;;;;2.50;1.55;;;18.90;1.00;;;;;;5043497;28;20195;-83
2023/08/07 08:59:18;;;;;;;2.10;1.52;;;18.50;1.00;;;;;;5039677;28;20185;-82
2023/08/07 09:01:46;;;;;;;2.83;1.58;;;18.20;1.00;;;;;;5048352;28;20182;-80
2023/08/07 09:04:12;;;;;;;3.78;1.83;;;18.10;1.00;;;;;;5031334;28;20305;-82
2023/08/07 09:06:38;;;;;;;2.55;1.70;;;18.40;1.00;;;;;;5030874;28;20219;-81
2023/08/07 09:09:05;;;;;;;1.92;1.50;;;18.60;1.00;;;;;;5029528;28;20214;-83
2023/08/07 09:11:30;;;;;;;2.88;1.90;;;18.80;1.00;;;;;;5038566;28;20186;-83
2023/08/07 09:13:57;;;;;;;4.50;1.92;;;18.90;1.00;;;;;;5032636;28;20175;-82
2023/08/07 09:16:25;;;;;;;3.03;1.85;;;18.70;1.00;;;;;;5031580;28;20290;-80
2023/08/07 09:18:55;;;;;;;3.00;1.70;;;18.30;1.00;;;;;;5046146;28;20651;-81
2023/08/07 09:21:21;;;;;;;3.33;1.63;;;17.90;1.00;;;;;;5032422;28;20186;-81
2023/08/07 09:23:58;;;;;;;4.30;1.60;;;17.70;1.00;;;;;;5032646;28;20179;-83
2023/08/07 09:26:24;;;;;;;3.75;1.60;;;17.50;1.00;;;;;;5032572;28;20202;-81
2023/08/07 09:29:10;;;;;;;2.65;1.85;;;17.20;1.00;;;;;;5031716;28;20605;-81
2023/08/07 09:32:08;;;;;;;2.28;1.70;;;17.10;24.70;;;;;;5049962;28;20185;-82
2023/08/07 09:34:34;;;;;;;3.13;1.83;;;17.00;99.90;;;;;;5032362;28;20191;-81
2023/08/07 09:37:05;;;;;;;3.10;1.90;;;16.90;99.90;;;;;;5033919;28;20266;-82
2023/08/07 09:39:33;;;;;;;3.42;2.53;;;16.80;93.30;;;;;;5045561;28;20206;-81
2023/08/07 09:41:59;;;;;;;2.70;1.55;;;16.90;99.90;;;;;;5034709;28;20183;-81
2023/08/07 09:44:25;;;;;;;4.15;2.22;;;16.70;99.90;;;;;;5051042;28;20183;-81
2023/08/07 09:46:51;;;;;;;2.50;1.80;;;16.80;1.00;;;;;;5025280;28;20202;-82
2023/08/07 09:49:18;;;;;;;4.22;2.10;;;16.60;1.00;;;;;;5040884;28;20286;-80
2023/08/07 09:51:45;;;;;;;2.53;1.80;;;17.30;72.30;;;;;;5043413;28;20175;-81
2023/08/07 09:54:11;;;;;;;5.30;2.20;;;17.00;99.90;;;;;;5040396;28;20195;-81
2023/08/07 09:56:41;;;;;;;3.35;2.10;;;16.40;99.90;;;;;;5039428;28;20274;-79
2023/08/07 09:59:07;;;;;;;2.30;2.10;;;15.10;99.90;;;;;;5022344;28;20179;-81
2023/08/07 10:01:36;;;;;;;3.22;2.13;;;17.00;99.90;;;;;;5044017;28;20238;-81
2023/08/07 10:04:02;;;;;;;2.67;2.03;;;16.30;99.90;;;;;;5028255;28;20179;-81
2023/08/07 10:06:28;;;;;;;3.85;2.15;;;16.60;12.80;;;;;;5032780;28;20209;-81
2023/08/07 10:08:54;;;;;;;2.72;2.00;;;16.10;1.00;;;;;;5051984;28;20279;-80
2023/08/07 10:11:21;;;;;;;4.07;2.30;;;16.20;1.00;;;;;;5050860;28;20182;-82
2023/08/07 10:13:47;;;;;;;2.17;1.50;;;17.00;1.00;;;;;;5050226;28;20235;-81
2023/08/07 10:16:14;;;;;;;3.90;1.95;;;17.50;1.00;;;;;;5031871;28;20183;-81
2023/08/07 10:18:39;;;;;;;3.22;1.60;;;16.50;99.90;;;;;;5030839;28;20277;-81
2023/08/07 10:21:09;;;;;;;5.50;1.85;;;16.80;1.00;;;;;;5031540;28;20195;-81
2023/08/07 10:23:36;;;;;;;3.97;1.90;;;16.50;99.90;;;;;;5032785;28;20175;-81
2023/08/07 10:26:05;;;;;;;7.38;2.67;;;17.60;1.00;;;;;;5050239;28;20178;-81
2023/08/07 10:28:33;;;;;;;3.33;1.98;;;16.80;1.00;;;;;;5049328;28;20230;-82
2023/08/07 10:30:59;;;;;;;4.25;1.60;;;17.00;99.90;;;;;;5049851;28;20174;-80
2023/08/07 10:33:25;;;;;;;3.85;1.88;;;16.60;1.00;;;;;;5047874;28;20186;-82
2023/08/07 10:35:52;;;;;;;4.00;2.15;;;17.20;1.00;;;;;;5021498;28;20175;-82
2023/08/07 10:38:23;;;;;;;5.55;2.40;;;17.30;1.00;;;;;;5040798;28;20194;-81
2023/08/07 10:40:59;;;;;;;4.30;1.95;;;17.50;1.00;;;;;;5040662;28;20161;-82
2023/08/07 10:43:27;;;;;;;5.20;2.35;;;17.60;99.90;;;;;;5023054;28;20178;-82
2023/08/07 10:45:53;;;;;;;6.35;2.42;;;17.50;1.00;;;;;;5022374;28;20179;-80
2023/08/07 10:48:21;;;;;;;7.30;2.75;;;17.50;1.00;;;;;;5041264;28;20197;-81
2023/08/07 10:51:03;;;;;;;6.50;2.55;;;17.50;1.00;;;;;;5038875;28;20203;-81
2023/08/07 10:53:31;;;;;;;5.65;2.40;;;17.50;1.00;;;;;;5038011;28;20182;-82
2023/08/07 10:56:17;;;;;;;7.75;2.30;;;17.50;1.00;;;;;;5019968;28;20179;-82
2023/08/07 10:58:51;;;;;;;12.15;2.63;;;17.60;1.00;;;;;;5019116;28;20277;-82
2023/08/07 11:01:35;;;;;;;7.30;2.30;;;17.70;99.90;;;;;;5037554;28;20170;-82
2023/08/07 11:04:06;;;;;;;6.30;2.60;;;17.90;99.90;;;;;;5020306;28;20201;-83
2023/08/07 11:06:34;;;;;;;4.70;2.30;;;18.10;99.90;;;;;;5021395;28;20198;-83
2023/08/07 11:09:08;;;;;;;5.55;2.33;;;18.30;33.60;;;;;;5024996;28;20297;-83
2023/08/07 11:11:39;;;;;;;5.57;2.05;;;17.80;99.90;;;;;;5039625;28;20181;-83
2023/08/07 11:14:09;;;;;;;5.68;1.90;;;17.60;1.00;;;;;;5021388;28;20229;-83
2023/08/07 11:16:35;;;;;;;3.50;1.75;;;17.50;99.90;;;;;;5038563;28;20278;-82
2023/08/07 11:19:02;;;;;;;3.00;1.65;;;17.60;1.00;;;;;;5022547;28;20252;-82
2023/08/07 11:21:28;;;;;;;2.78;1.70;;;17.90;99.90;;;;;;5022140;28;20174;-82
2023/08/07 11:23:54;;;;;;;4.43;1.42;;;18.10;99.90;;;;;;5028241;28;20211;-82
2023/08/07 11:26:21;;;;;;;3.90;1.70;;;18.50;1.00;;;;;;5032230;28;20199;-80
2023/08/07 11:28:48;;;;;;;3.85;1.75;;;18.70;1.00;;;;;;5034937;28;20187;-83
2023/08/07 11:31:14;;;;;;;5.18;1.67;;;18.80;1.00;;;;;;5034869;28;20175;-80
2023/08/07 11:33:42;;;;;;;4.53;1.48;;;18.30;1.00;;;;;;5030771;28;20213;-81
2023/08/07 11:36:12;;;;;;;3.97;1.50;;;17.70;1.00;;;;;;5047656;28;20227;-81
2023/08/07 11:38:45;;;;;;;4.85;1.85;;;18.10;99.90;;;;;;5046926;28;20171;-80
2023/08/07 11:41:13;;;;;;;3.50;1.85;;;17.10;1.00;;;;;;5048996;28;20174;-81
2023/08/07 11:43:39;;;;;;;5.75;1.88;;;17.40;1.00;;;;;;5047048;28;20167;-81
2023/08/07 11:46:07;;;;;;;2.70;1.60;;;17.60;1.00;;;;;;5045830;28;20551;-80
2023/08/07 11:48:35;;;;;;;5.07;1.55;;;18.00;1.00;;;;;;5021660;28;20645;-82
2023/08/07 11:51:01;;;;;;;3.83;1.77;;;17.80;99.90;;;;;;5033915;28;20174;-82
2023/08/07 11:53:32;;;;;;;4.55;2.00;;;17.80;99.90;;;;;;5015790;28;20270;-81
2023/08/07 11:56:04;;;;;;;4.25;1.80;;;17.80;99.90;;;;;;5017045;28;20183;-84
2023/08/07 11:58:40;;;;;;;4.05;1.90;;;18.00;99.90;;;;;;5035219;28;20156;-82
2023/08/07 12:01:18;;;;;;;5.15;2.20;;;17.90;99.90;;;;;;5035529;28;20171;-81
2023/08/07 12:03:53;;;;;;;5.38;2.00;;;17.60;99.90;;;;;;5034062;28;20167;-82
2023/08/07 12:06:18;;;;;;;5.18;1.95;;;17.40;99.90;;;;;;5019342;28;20191;-81
2023/08/07 12:08:44;;;;;;;7.03;1.63;;;17.10;99.90;;;;;;5024787;28;20198;-84
2023/08/07 12:11:13;;;;;;;5.70;1.88;;;16.90;1.00;;;;;;5026789;28;20175;-84
2023/08/07 12:13:41;;;;;;;6.10;1.90;;;16.70;99.90;;;;;;5016552;28;20174;-82
2023/08/07 12:16:15;;;;;;;3.90;1.90;;;16.50;99.90;;;;;;5015748;28;20175;-83
2023/08/07 12:18:45;;;;;;;3.88;1.60;;;16.70;1.00;;;;;;5033397;28;20669;-81
2023/08/07 12:21:13;;;;;;;5.03;1.95;;;16.70;1.00;;;;;;5015618;28;20531;-80
2023/08/07 12:23:38;;;;;;;4.30;1.95;;;16.60;1.00;;;;;;5033077;28;20178;-80
2023/08/07 12:26:06;;;;;;;2.88;1.42;;;16.60;1.00;;;;;;5032545;28;20179;-81
2023/08/07 12:28:33;;;;;;;4.15;1.77;;;16.70;1.00;;;;;;5014174;28;20705;-80
2023/08/07 12:30:59;;;;;;;5.07;1.75;;;16.60;1.00;;;;;;5015228;28;20591;-81
2023/08/07 12:33:25;;;;;;;4.72;1.83;;;16.70;1.00;;;;;;5014996;28;20177;-80
2023/08/07 12:35:51;;;;;;;2.70;1.60;;;16.90;1.00;;;;;;5014744;28;20179;-80
2023/08/07 12:38:17;;;;;;;3.72;1.63;;;17.10;1.00;;;;;;5014815;28;20656;-81
2023/08/07 12:40:43;;;;;;;4.60;2.00;;;17.40;1.00;;;;;;5015017;28;20190;-81
2023/08/07 12:43:08;;;;;;;7.43;2.08;;;17.40;99.90;;;;;;5014785;28;20649;-82
2023/08/07 12:45:34;;;;;;;7.32;1.48;;;17.50;99.90;;;;;;5032688;28;20186;-81
2023/08/07 12:48:00;;;;;;;3.45;1.50;;;17.50;1.00;;;;;;5015125;28;20202;-81
2023/08/07 12:50:27;;;;;;;4.32;1.20;;;17.50;99.90;;;;;;5031938;28;20570;-80
2023/08/07 12:52:53;;;;;;;3.58;1.33;;;17.40;99.90;;;;;;5031953;28;20179;-84
2023/08/07 12:55:19;;;;;;;2.45;1.20;;;17.50;99.90;;;;;;5028553;28;20227;-83
2023/08/07 12:57:45;;;;;;;4.68;1.20;;;17.50;99.90;;;;;;5034592;28;20800;-81
2023/08/07 13:00:15;;;;;;;5.55;1.50;;;17.70;99.90;;;;;;5035063;28;20221;-81